createdAt,value
2018-03-22T00:00:35.040Z,14.80
2018-03-22T00:03:03.347Z,10.00
2018-03-22T00:05:32.352Z,9.47
2018-03-22T00:08:00.613Z,9.97
2018-03-22T00:10:29.629Z,8.43
2018-03-22T00:12:57.884Z,10.80
2018-03-22T00:15:26.902Z,12.40
2018-03-22T00:17:55.185Z,8.07
2018-03-22T00:20:23.432Z,10.73
2018-03-22T00:22:52.454Z,7.67
2018-03-22T00:25:20.702Z,8.00
2018-03-22T00:27:49.718Z,7.60
2018-03-22T00:30:18.047Z,6.53
2018-03-22T00:32:46.328Z,6.60
2018-03-22T00:35:14.564Z,7.80
2018-03-22T00:37:42.808Z,8.70
2018-03-22T00:40:11.828Z,7.50
2018-03-22T00:42:40.067Z,9.63
2018-03-22T00:45:08.331Z,11.17
2018-03-22T00:47:36.643Z,7.23
2018-03-22T00:50:04.873Z,8.53
2018-03-22T00:52:33.145Z,12.13
2018-03-22T00:55:01.401Z,13.50
2018-03-22T00:57:29.677Z,10.10
2018-03-22T00:59:57.938Z,12.47
2018-03-22T01:02:26.187Z,10.33
2018-03-22T01:04:55.259Z,9.00
2018-03-22T01:07:24.264Z,8.27
2018-03-22T01:09:52.531Z,10.50
2018-03-22T01:12:20.807Z,10.70
2018-03-22T01:14:49.443Z,8.37
2018-03-22T01:17:17.731Z,11.07
2018-03-22T01:19:45.971Z,9.13
2018-03-22T01:22:14.225Z,8.57
2018-03-22T01:24:42.459Z,13.63
2018-03-22T01:27:10.735Z,8.97
2018-03-22T01:29:39.018Z,8.27
2018-03-22T01:32:07.275Z,8.87
2018-03-22T01:34:35.537Z,6.67
2018-03-22T01:37:03.811Z,9.27
2018-03-22T01:39:32.056Z,8.70
2018-03-22T01:42:01.073Z,10.53
2018-03-22T01:44:29.332Z,6.87
2018-03-22T01:46:57.588Z,5.93
2018-03-22T01:49:25.876Z,6.33
2018-03-22T01:51:54.125Z,7.77
2018-03-22T01:54:22.378Z,7.33
2018-03-22T01:56:50.617Z,6.60
2018-03-22T01:59:18.911Z,9.10
2018-03-22T02:01:47.216Z,8.90
2018-03-22T02:04:15.472Z,5.03
2018-03-22T02:06:43.720Z,8.70
2018-03-22T02:09:12.753Z,7.23
2018-03-22T02:11:40.986Z,7.97
2018-03-22T02:14:09.996Z,10.80
2018-03-22T02:16:38.245Z,11.10
2018-03-22T02:19:07.272Z,14.40
2018-03-22T02:21:35.555Z,7.27
2018-03-22T02:24:03.812Z,7.13
2018-03-22T02:26:32.099Z,10.47
2018-03-22T02:29:00.365Z,13.67
2018-03-22T02:31:28.633Z,12.20
2018-03-22T02:33:56.881Z,13.20
2018-03-22T02:36:25.163Z,13.87
2018-03-22T02:38:54.234Z,13.80
2018-03-22T02:41:22.488Z,14.13
2018-03-22T02:43:50.797Z,11.13
2018-03-22T02:46:19.035Z,11.07
2018-03-22T02:48:47.298Z,13.60
2018-03-22T02:51:15.576Z,14.47
2018-03-22T02:53:43.826Z,15.23
2018-03-22T02:56:12.855Z,19.57
2018-03-22T02:58:41.115Z,12.73
2018-03-22T03:01:09.573Z,14.73
2018-03-22T03:03:38.598Z,10.93
2018-03-22T03:06:06.891Z,14.13
2018-03-22T03:08:35.104Z,15.33
2018-03-22T03:11:04.135Z,14.47
2018-03-22T03:13:33.323Z,13.30
2018-03-22T03:16:01.583Z,11.83
2018-03-22T03:18:30.660Z,11.77
2018-03-22T03:20:58.943Z,11.30
2018-03-22T03:23:27.184Z,13.37
2018-03-22T03:25:55.464Z,10.47
2018-03-22T03:28:23.719Z,11.50
2018-03-22T03:30:51.964Z,15.17
2018-03-22T03:33:20.203Z,10.80
2018-03-22T03:35:48.475Z,12.83
2018-03-22T03:38:16.732Z,11.90
2018-03-22T03:40:44.985Z,16.20
2018-03-22T03:43:13.232Z,14.63
2018-03-22T03:45:41.481Z,15.50
2018-03-22T03:48:09.737Z,16.73
2018-03-22T03:50:37.996Z,13.87
2018-03-22T03:53:06.235Z,15.00
2018-03-22T03:55:35.296Z,19.53
2018-03-22T03:58:03.547Z,13.13
2018-03-22T04:00:31.818Z,21.87
2018-03-22T04:03:00.064Z,14.37
2018-03-22T04:05:28.355Z,10.90
2018-03-22T04:07:56.643Z,17.00
2018-03-22T04:10:24.948Z,14.63
2018-03-22T04:12:53.984Z,14.97
2018-03-22T04:15:24.194Z,11.03
2018-03-22T04:17:53.232Z,17.43
2018-03-22T04:20:21.490Z,11.80
2018-03-22T04:22:49.756Z,9.33
2018-03-22T04:25:18.775Z,10.77
2018-03-22T04:27:47.036Z,10.40
2018-03-22T04:30:15.299Z,12.13
2018-03-22T04:32:44.356Z,13.00
2018-03-22T04:35:12.611Z,17.03
2018-03-22T04:37:40.900Z,8.77
2018-03-22T04:40:09.166Z,11.43
2018-03-22T04:42:37.480Z,11.50
2018-03-22T04:45:06.495Z,8.60
2018-03-22T04:47:34.741Z,11.13
2018-03-22T04:50:03.017Z,10.50
2018-03-22T04:52:31.267Z,12.23
2018-03-22T04:54:59.622Z,12.57
2018-03-22T04:57:27.902Z,15.10
2018-03-22T04:59:56.176Z,11.90
2018-03-22T05:02:24.446Z,11.83
2018-03-22T05:04:52.721Z,12.10
2018-03-22T05:07:20.959Z,12.37
2018-03-22T05:09:50.025Z,13.07
2018-03-22T05:12:18.269Z,11.63
2018-03-22T05:14:46.553Z,14.23
2018-03-22T05:17:14.787Z,10.93
2018-03-22T05:19:43.797Z,8.27
2018-03-22T05:22:12.811Z,12.37
2018-03-22T05:24:41.072Z,12.67
2018-03-22T05:27:10.078Z,11.67
2018-03-22T05:29:38.329Z,14.20
2018-03-22T05:32:07.379Z,12.93
2018-03-22T05:34:35.635Z,11.87
2018-03-22T05:37:03.900Z,9.97
2018-03-22T05:39:32.260Z,10.77
2018-03-22T05:42:00.538Z,12.40
2018-03-22T05:44:28.828Z,10.97
2018-03-22T05:46:57.076Z,8.23
2018-03-22T05:49:26.131Z,12.30
2018-03-22T05:51:54.396Z,17.97
2018-03-22T05:54:22.659Z,13.43
2018-03-22T05:56:50.962Z,16.17
2018-03-22T05:59:19.218Z,17.33
2018-03-22T06:01:47.465Z,12.67
2018-03-22T06:04:15.757Z,11.63
2018-03-22T06:06:44.031Z,11.87
2018-03-22T06:09:12.317Z,13.70
2018-03-22T06:11:40.858Z,12.60
2018-03-22T06:14:09.120Z,9.97
2018-03-22T06:16:37.394Z,15.33
2018-03-22T06:19:05.644Z,11.83
2018-03-22T06:21:33.915Z,12.90
2018-03-22T06:24:02.182Z,13.57
2018-03-22T06:26:30.476Z,11.53
2018-03-22T06:28:58.721Z,16.03
2018-03-22T06:31:26.972Z,21.13
2018-03-22T06:33:56.010Z,15.60
2018-03-22T06:36:24.315Z,15.70
2018-03-22T06:38:52.618Z,15.63
2018-03-22T06:41:21.625Z,11.20
2018-03-22T06:43:49.928Z,14.00
2018-03-22T06:46:18.204Z,15.43
2018-03-22T06:48:46.610Z,9.97
2018-03-22T06:51:14.840Z,16.47
2018-03-22T06:53:43.127Z,13.47
2018-03-22T06:56:11.354Z,10.17
2018-03-22T06:58:40.392Z,19.23
2018-03-22T07:01:08.678Z,9.33
2018-03-22T07:03:36.952Z,10.73
2018-03-22T07:06:05.204Z,15.80
2018-03-22T07:08:33.480Z,8.93
2018-03-22T07:11:01.724Z,11.43
2018-03-22T07:13:30.771Z,11.77
2018-03-22T07:15:59.072Z,7.77
2018-03-22T07:18:27.707Z,8.97
2018-03-22T07:20:56.895Z,10.30
2018-03-22T07:23:25.151Z,11.83
2018-03-22T07:25:55.175Z,10.23
2018-03-22T07:28:23.408Z,14.57
2018-03-22T07:30:51.682Z,14.70
2018-03-22T07:33:19.986Z,9.00
2018-03-22T07:35:48.303Z,10.73
2018-03-22T07:38:16.544Z,9.73
2018-03-22T07:40:44.792Z,7.30
2018-03-22T07:43:18.645Z,11.47
2018-03-22T07:45:46.903Z,13.60
2018-03-22T07:48:15.151Z,8.47
2018-03-22T07:50:44.387Z,7.57
2018-03-22T07:53:12.636Z,6.87
2018-03-22T07:55:40.928Z,7.87
2018-03-22T07:58:09.160Z,6.33
2018-03-22T08:00:38.186Z,6.43
2018-03-22T08:03:07.253Z,7.67
2018-03-22T08:05:35.519Z,11.70
2018-03-22T08:08:09.136Z,10.23
2018-03-22T08:10:37.368Z,8.50
2018-03-22T08:13:06.402Z,10.53
2018-03-22T08:15:34.655Z,8.43
2018-03-22T08:18:03.548Z,6.80
2018-03-22T08:20:31.815Z,8.47
2018-03-22T08:23:00.846Z,22.40
2018-03-22T08:25:30.021Z,6.73
2018-03-22T08:27:58.261Z,5.60
2018-03-22T08:30:27.289Z,8.93
2018-03-22T08:32:55.576Z,8.27
2018-03-22T08:35:23.851Z,9.43
2018-03-22T08:37:52.111Z,5.27
2018-03-22T08:40:20.369Z,7.00
2018-03-22T08:42:48.625Z,14.50
2018-03-22T08:45:16.900Z,14.33
2018-03-22T08:47:45.140Z,8.50
2018-03-22T08:50:13.451Z,12.77
2018-03-22T08:52:41.711Z,7.80
2018-03-22T08:55:09.964Z,8.73
2018-03-22T08:57:38.991Z,6.93
2018-03-22T09:00:07.237Z,9.03
2018-03-22T09:02:35.480Z,11.97
2018-03-22T09:05:04.503Z,10.87
2018-03-22T09:07:32.773Z,10.70
2018-03-22T09:10:01.055Z,12.07
2018-03-22T09:12:29.344Z,11.70
2018-03-22T09:14:57.587Z,11.13
2018-03-22T09:17:25.856Z,9.07
2018-03-22T09:19:54.135Z,11.63
2018-03-22T09:22:22.454Z,11.80
2018-03-22T09:24:50.658Z,11.00
2018-03-22T09:27:18.959Z,8.33
2018-03-22T09:29:47.215Z,11.27
2018-03-22T09:32:15.623Z,13.93
2018-03-22T09:34:43.972Z,5.73
2018-03-22T09:37:12.283Z,5.93
2018-03-22T09:39:40.513Z,6.77
2018-03-22T09:42:08.829Z,7.23
2018-03-22T09:44:37.104Z,9.00
2018-03-22T09:47:05.379Z,9.10
2018-03-22T09:49:34.880Z,8.97
2018-03-22T09:52:03.152Z,7.00
2018-03-22T09:54:32.172Z,7.57
2018-03-22T09:57:01.327Z,10.87
2018-03-22T09:59:29.627Z,11.57
2018-03-22T10:01:58.648Z,18.20
2018-03-22T10:04:27.933Z,13.80
2018-03-22T10:06:56.196Z,12.57
2018-03-22T10:09:24.477Z,13.00
2018-03-22T10:11:52.780Z,12.63
2018-03-22T10:14:21.048Z,16.03
2018-03-22T10:16:49.325Z,11.30
2018-03-22T10:19:17.607Z,10.47
2018-03-22T10:21:45.953Z,9.60
2018-03-22T10:24:15.004Z,8.20
2018-03-22T10:26:43.295Z,8.50
2018-03-22T10:29:11.570Z,10.03
2018-03-22T10:31:39.840Z,10.30
2018-03-22T10:34:08.106Z,9.53
2018-03-22T10:36:36.605Z,11.03
2018-03-22T10:39:04.863Z,15.77
2018-03-22T10:41:33.118Z,12.67
2018-03-22T10:44:01.392Z,14.23
2018-03-22T10:46:29.658Z,11.53
2018-03-22T10:48:57.909Z,17.80
2018-03-22T10:51:26.186Z,12.93
2018-03-22T10:53:54.738Z,14.07
2018-03-22T10:56:22.994Z,12.33
2018-03-22T10:58:51.265Z,21.90
2018-03-22T11:01:25.120Z,15.73
2018-03-22T11:03:53.424Z,18.13
2018-03-22T11:06:21.678Z,18.50
2018-03-22T11:08:50.750Z,19.73
2018-03-22T11:11:19.788Z,17.20
2018-03-22T11:13:48.070Z,16.73
2018-03-22T11:16:16.301Z,17.40
2018-03-22T11:18:45.668Z,15.73
2018-03-22T11:21:13.960Z,23.97
2018-03-22T11:23:42.232Z,24.17
2018-03-22T11:26:10.616Z,18.93
2018-03-22T11:28:38.865Z,18.43
2018-03-22T11:31:07.200Z,29.27
2018-03-22T11:33:36.237Z,16.67
2018-03-22T11:36:04.496Z,18.77
2018-03-22T11:38:33.716Z,20.10
2018-03-22T11:41:02.741Z,20.60
2018-03-22T11:43:36.753Z,20.53
2018-03-22T11:46:05.076Z,20.10
2018-03-22T11:48:33.324Z,19.93
2018-03-22T11:51:02.384Z,23.37
2018-03-22T11:53:30.648Z,13.60
2018-03-22T11:55:58.911Z,7.53
2018-03-22T11:58:27.176Z,7.90
2018-03-22T12:00:55.439Z,11.07
2018-03-22T12:03:23.784Z,14.27
2018-03-22T12:05:52.093Z,15.50
2018-03-22T12:08:20.436Z,18.97
2018-03-22T12:10:49.459Z,15.67
2018-03-22T12:13:17.747Z,19.57
2018-03-22T12:15:46.000Z,29.60
2018-03-22T12:18:14.265Z,17.90
2018-03-22T12:20:42.537Z,26.83
2018-03-22T12:23:10.788Z,20.40
2018-03-22T12:25:39.068Z,20.00
2018-03-22T12:28:07.443Z,20.93
2018-03-22T12:30:35.741Z,19.97
2018-03-22T12:33:03.992Z,23.50
2018-03-22T12:35:32.282Z,19.87
2018-03-22T12:38:00.562Z,18.90
2018-03-22T12:40:28.852Z,19.97
2018-03-22T12:42:57.145Z,28.70
2018-03-22T12:45:26.156Z,26.53
2018-03-22T12:47:54.447Z,29.73
2018-03-22T12:50:22.680Z,19.47
2018-03-22T12:52:50.988Z,23.33
2018-03-22T12:55:19.285Z,21.87
2018-03-22T12:57:47.556Z,22.77
2018-03-22T13:00:15.808Z,22.10
2018-03-22T13:02:44.092Z,25.20
2018-03-22T13:05:12.360Z,20.77
2018-03-22T13:07:40.616Z,19.00
2018-03-22T13:10:09.652Z,22.30
2018-03-22T13:12:37.950Z,23.60
2018-03-22T13:15:06.204Z,24.27
2018-03-22T13:17:34.450Z,23.37
2018-03-22T13:20:02.729Z,24.33
2018-03-22T13:22:31.045Z,24.17
2018-03-22T13:25:01.038Z,25.73
2018-03-22T13:27:31.097Z,27.40
2018-03-22T13:29:59.395Z,26.57
2018-03-22T13:32:27.796Z,26.60
2018-03-22T13:34:57.796Z,30.67
2018-03-22T13:37:26.225Z,26.43
2018-03-22T13:39:54.504Z,30.37
2018-03-22T13:42:22.763Z,27.03
2018-03-22T13:44:51.073Z,27.90
2018-03-22T13:47:20.196Z,34.63
2018-03-22T13:49:50.113Z,35.53
2018-03-22T13:52:19.170Z,36.30
2018-03-22T13:54:47.466Z,32.17
2018-03-22T13:57:15.743Z,33.43
2018-03-22T13:59:44.273Z,25.53
2018-03-22T14:02:12.588Z,26.70
2018-03-22T14:04:40.832Z,33.13
2018-03-22T14:07:09.104Z,36.27
2018-03-22T14:09:37.370Z,28.50
2018-03-22T14:12:05.622Z,26.33
2018-03-22T14:14:34.659Z,28.53
2018-03-22T14:17:02.965Z,27.83
2018-03-22T14:19:31.260Z,32.10
2018-03-22T14:21:59.599Z,26.67
2018-03-22T14:24:27.868Z,22.97
2018-03-22T14:26:56.116Z,27.90
2018-03-22T14:29:25.100Z,21.77
2018-03-22T14:31:54.128Z,26.37
2018-03-22T14:34:22.403Z,24.57
2018-03-22T14:36:50.670Z,22.93
2018-03-22T14:39:18.993Z,19.57
2018-03-22T14:41:47.309Z,23.40
2018-03-22T14:44:15.578Z,23.27
2018-03-22T14:46:43.864Z,21.57
2018-03-22T14:49:12.143Z,29.83
2018-03-22T14:51:40.441Z,25.80
2018-03-22T14:54:08.712Z,25.43
2018-03-22T14:56:37.358Z,25.73
2018-03-22T14:59:06.403Z,29.50
2018-03-22T15:01:34.762Z,24.20
2018-03-22T15:04:03.013Z,24.63
2018-03-22T15:06:32.041Z,20.47
2018-03-22T15:09:00.320Z,20.77
2018-03-22T15:11:28.591Z,19.67
2018-03-22T15:13:56.868Z,19.77
2018-03-22T15:16:25.137Z,22.23
2018-03-22T15:18:53.762Z,22.60
2018-03-22T15:21:22.032Z,23.07
2018-03-22T15:23:50.280Z,22.37
2018-03-22T15:26:18.528Z,21.27
2018-03-22T15:28:46.809Z,22.37
2018-03-22T15:33:55.830Z,22.73
2018-03-22T15:36:24.088Z,21.47
2018-03-22T15:38:52.341Z,18.37
2018-03-22T15:41:20.638Z,25.27
2018-03-22T15:43:48.900Z,21.30
2018-03-22T15:46:17.167Z,18.50
2018-03-22T15:48:45.414Z,21.13
2018-03-22T15:51:13.691Z,18.73
2018-03-22T15:53:41.959Z,18.77
2018-03-22T15:56:11.010Z,19.30
2018-03-22T15:58:39.286Z,21.03
2018-03-22T16:01:07.585Z,19.97
2018-03-22T16:03:35.855Z,16.77
2018-03-22T16:06:04.890Z,17.67
2018-03-22T16:08:33.160Z,18.50
2018-03-22T16:11:01.469Z,18.83
2018-03-22T16:13:41.784Z,19.20
2018-03-22T16:16:10.813Z,18.33
2018-03-22T16:18:39.096Z,19.83
2018-03-22T16:21:07.398Z,18.70
2018-03-22T16:23:35.673Z,18.87
2018-03-22T16:26:03.954Z,19.27
2018-03-22T16:28:32.227Z,18.67
2018-03-22T16:31:00.478Z,18.00
2018-03-22T16:33:28.752Z,21.90
2018-03-22T16:35:57.869Z,19.30
2018-03-22T16:38:26.132Z,23.47
2018-03-22T16:40:54.410Z,21.10
2018-03-22T16:43:22.714Z,21.73
2018-03-22T16:45:50.973Z,18.83
2018-03-22T16:48:19.287Z,22.53
2018-03-22T16:50:47.578Z,21.70
2018-03-22T16:53:15.869Z,21.23
2018-03-22T16:55:44.133Z,21.97
2018-03-22T16:58:12.452Z,25.60
2018-03-22T17:00:40.719Z,18.67
2018-03-22T17:03:09.023Z,20.37
2018-03-22T17:05:37.288Z,22.67
2018-03-22T17:08:05.566Z,20.83
2018-03-22T17:10:33.884Z,25.37
2018-03-22T17:13:02.206Z,22.53
2018-03-22T17:15:30.481Z,25.03
2018-03-22T17:17:58.868Z,24.30
2018-03-22T17:20:27.139Z,25.40
2018-03-22T17:22:55.474Z,24.43
2018-03-22T17:25:23.777Z,23.27
2018-03-22T17:27:52.033Z,21.50
2018-03-22T17:30:20.324Z,22.77
2018-03-22T17:35:24.278Z,25.57
2018-03-22T17:37:52.542Z,23.97
2018-03-22T17:40:25.328Z,24.53
2018-03-22T17:42:53.608Z,23.07
2018-03-22T17:45:21.884Z,25.60
2018-03-22T17:47:50.144Z,27.17
2018-03-22T17:50:18.428Z,24.17
2018-03-22T17:52:52.751Z,23.00
2018-03-22T17:55:20.991Z,25.43
2018-03-22T17:57:50.622Z,30.00
2018-03-22T18:00:19.244Z,28.00
2018-03-22T18:02:47.521Z,25.60
2018-03-22T18:05:15.772Z,24.80
2018-03-22T18:07:44.056Z,27.97
2018-03-22T18:10:12.330Z,31.63
2018-03-22T18:12:41.377Z,31.60
2018-03-22T18:15:09.665Z,24.97
2018-03-22T18:17:37.934Z,25.77
2018-03-22T18:20:06.215Z,23.97
2018-03-22T18:22:34.520Z,24.20
2018-03-22T18:25:02.794Z,25.57
2018-03-22T18:27:31.084Z,25.47
2018-03-22T18:29:59.349Z,29.47
2018-03-22T18:32:27.596Z,27.60
2018-03-22T18:34:55.867Z,24.47
2018-03-22T18:37:24.132Z,30.90
2018-03-22T18:39:52.406Z,28.33
2018-03-22T18:42:20.680Z,31.57
2018-03-22T18:44:49.756Z,31.57
2018-03-22T18:47:18.033Z,30.87
2018-03-22T18:49:46.347Z,29.50
2018-03-22T18:52:14.623Z,29.67
2018-03-22T18:54:43.062Z,26.60
2018-03-22T18:57:11.430Z,33.37
2018-03-22T18:59:39.689Z,29.80
2018-03-22T19:02:07.958Z,29.47
2018-03-22T19:04:36.274Z,29.33
2018-03-22T19:07:04.605Z,28.23
2018-03-22T19:09:32.860Z,32.07
2018-03-22T19:12:01.156Z,33.40
2018-03-22T19:14:29.435Z,31.43
2018-03-22T19:16:57.710Z,33.23
2018-03-22T19:19:25.975Z,33.07
2018-03-22T19:21:54.220Z,30.63
2018-03-22T19:24:23.295Z,28.67
2018-03-22T19:26:51.568Z,30.40
2018-03-22T19:29:19.844Z,26.90
2018-03-22T19:31:48.100Z,34.27
2018-03-22T19:34:16.376Z,27.17
2018-03-22T19:36:44.649Z,36.17
2018-03-22T19:39:12.929Z,29.20
2018-03-22T19:41:41.225Z,28.63
2018-03-22T19:44:09.501Z,28.20
2018-03-22T19:46:37.782Z,30.50
2018-03-22T19:49:06.038Z,32.10
2018-03-22T19:51:34.341Z,28.60
2018-03-22T19:54:02.618Z,30.47
2018-03-22T19:56:30.870Z,31.63
2018-03-22T19:58:59.124Z,29.63
2018-03-22T20:01:27.404Z,27.07
2018-03-22T20:03:55.805Z,28.77
2018-03-22T20:06:24.087Z,27.00
2018-03-22T20:08:52.398Z,30.73
2018-03-22T20:11:20.665Z,26.83
2018-03-22T20:13:49.720Z,33.13
2018-03-22T20:16:17.980Z,30.30
2018-03-22T20:18:46.251Z,30.60
2018-03-22T20:21:14.558Z,26.90
2018-03-22T20:23:42.810Z,27.27
2018-03-22T20:26:11.099Z,24.97
2018-03-22T20:28:39.405Z,25.80
2018-03-22T20:31:07.697Z,27.47
2018-03-22T20:33:35.993Z,25.10
2018-03-22T20:36:04.282Z,23.43
2018-03-22T20:38:32.544Z,22.30
2018-03-22T20:41:00.806Z,24.33
2018-03-22T20:43:29.107Z,22.00
2018-03-22T20:45:58.081Z,20.70
2018-03-22T20:48:26.378Z,21.10
2018-03-22T20:50:54.646Z,22.70
2018-03-22T20:53:22.921Z,21.77
2018-03-22T20:55:51.221Z,24.93
2018-03-22T20:58:19.480Z,21.90
2018-03-22T21:00:47.777Z,19.63
2018-03-22T21:03:16.071Z,16.63
2018-03-22T21:05:44.356Z,19.57
2018-03-22T21:08:12.725Z,19.17
2018-03-22T21:10:41.024Z,19.07
2018-03-22T21:13:10.506Z,20.73
2018-03-22T21:15:38.794Z,22.80
2018-03-22T21:18:17.247Z,22.70
2018-03-22T21:20:45.554Z,21.40
2018-03-22T21:23:13.782Z,25.90
2018-03-22T21:25:42.079Z,21.13
2018-03-22T21:28:10.364Z,19.17
2018-03-22T21:30:39.167Z,19.87
2018-03-22T21:33:08.535Z,18.67
2018-03-22T21:35:37.139Z,20.63
2018-03-22T21:38:05.539Z,26.43
2018-03-22T21:40:34.648Z,19.37
2018-03-22T21:43:03.753Z,19.60
2018-03-22T21:45:32.037Z,20.73
2018-03-22T21:48:00.299Z,19.80
2018-03-22T21:53:28.078Z,18.60
2018-03-22T21:55:56.469Z,19.43
2018-03-22T21:58:24.792Z,17.17
2018-03-22T22:00:53.045Z,18.20
2018-03-22T22:03:21.332Z,18.43
2018-03-22T22:05:49.610Z,20.57
2018-03-22T22:08:17.860Z,21.27
2018-03-22T22:10:46.121Z,21.80
2018-03-22T22:13:14.384Z,21.17
2018-03-22T22:15:42.661Z,18.57
2018-03-22T22:18:10.912Z,19.80
2018-03-22T22:20:39.210Z,19.00
2018-03-22T22:23:07.460Z,18.17
2018-03-22T22:25:35.725Z,17.73
2018-03-22T22:28:04.717Z,17.67
2018-03-22T22:30:33.704Z,17.20
2018-03-22T22:33:01.965Z,19.23
2018-03-22T22:35:30.595Z,19.73
2018-03-22T22:37:58.868Z,21.80
2018-03-22T22:40:28.090Z,19.50
2018-03-22T22:42:56.343Z,17.83
2018-03-22T22:45:24.638Z,18.70
2018-03-22T22:47:52.925Z,15.23
2018-03-22T22:50:21.188Z,19.07
2018-03-22T22:52:49.879Z,17.80
2018-03-22T22:55:18.142Z,18.67
2018-03-22T22:57:46.424Z,17.80
2018-03-22T23:00:14.692Z,18.03
2018-03-22T23:02:43.808Z,18.47
2018-03-22T23:05:12.084Z,18.20
2018-03-22T23:07:40.359Z,18.67
2018-03-22T23:10:08.632Z,17.23
2018-03-22T23:12:37.709Z,16.93
2018-03-22T23:15:07.308Z,16.57
2018-03-22T23:17:35.552Z,18.63
2018-03-22T23:20:04.857Z,17.37
2018-03-22T23:22:33.161Z,18.93
2018-03-22T23:25:01.458Z,20.13
2018-03-22T23:27:29.736Z,17.90
2018-03-22T23:29:57.984Z,17.70
2018-03-22T23:32:26.249Z,15.73
2018-03-22T23:34:54.500Z,16.17
2018-03-22T23:37:23.532Z,19.07
2018-03-22T23:39:51.795Z,18.73
2018-03-22T23:42:20.067Z,18.47
2018-03-22T23:44:48.319Z,20.93
2018-03-22T23:47:16.601Z,18.63
2018-03-22T23:49:44.855Z,20.60
2018-03-22T23:52:13.142Z,19.30
2018-03-22T23:54:41.390Z,25.87
2018-03-22T23:57:09.659Z,22.07
2018-03-22T23:59:37.935Z,19.57
